sensor_id;sensor_type;location;lat;lon;timestamp;pressure;altitude;pressure_sealevel;temperature;humidity
7768;BME280;3928;42.626;23.382;2023-05-23T00:01:04;94051.91;;;16.27;84.11
7768;BME280;3928;42.626;23.382;2023-05-23T00:03:32;94063.81;;;16.31;84.64
7768;BME280;3928;42.626;23.382;2023-05-23T00:06:00;94059.69;;;16.27;84.87
7768;BME280;3928;42.626;23.382;2023-05-23T00:08:27;94063.31;;;16.23;84.31
7768;BME280;3928;42.626;23.382;2023-05-23T00:10:53;94059.53;;;16.10;84.49
7768;BME280;3928;42.626;23.382;2023-05-23T00:13:22;94054.00;;;15.99;85.39
7768;BME280;3928;42.626;23.382;2023-05-23T00:15:49;94051.78;;;15.90;86.13
7768;BME280;3928;42.626;23.382;2023-05-23T00:18:16;94051.38;;;15.78;86.88
7768;BME280;3928;42.626;23.382;2023-05-23T00:20:44;94052.63;;;15.68;87.11
7768;BME280;3928;42.626;23.382;2023-05-23T00:23:11;94051.38;;;15.78;86.61
7768;BME280;3928;42.626;23.382;2023-05-23T00:25:43;94025.72;;;15.72;86.09
7768;BME280;3928;42.626;23.382;2023-05-23T00:28:13;94024.72;;;15.76;85.68
7768;BME280;3928;42.626;23.382;2023-05-23T00:30:41;94030.22;;;15.89;85.21
7768;BME280;3928;42.626;23.382;2023-05-23T00:33:09;94041.63;;;16.05;84.77
7768;BME280;3928;42.626;23.382;2023-05-23T00:35:38;94039.63;;;16.12;84.59
7768;BME280;3928;42.626;23.382;2023-05-23T00:38:04;94037.81;;;16.14;84.27
7768;BME280;3928;42.626;23.382;2023-05-23T00:40:32;94040.53;;;16.11;83.75
7768;BME280;3928;42.626;23.382;2023-05-23T00:42:59;94042.22;;;16.12;84.02
7768;BME280;3928;42.626;23.382;2023-05-23T00:45:26;94037.94;;;16.11;84.46
7768;BME280;3928;42.626;23.382;2023-05-23T00:47:54;94038.19;;;16.05;83.75
7768;BME280;3928;42.626;23.382;2023-05-23T00:50:23;94039.47;;;15.95;83.34
7768;BME280;3928;42.626;23.382;2023-05-23T00:52:54;94041.22;;;15.94;83.74
7768;BME280;3928;42.626;23.382;2023-05-23T00:55:22;94035.34;;;15.91;83.99
7768;BME280;3928;42.626;23.382;2023-05-23T00:57:50;94039.34;;;15.77;83.35
7768;BME280;3928;42.626;23.382;2023-05-23T01:00:20;94035.56;;;15.64;83.52
7768;BME280;3928;42.626;23.382;2023-05-23T01:02:49;94036.47;;;15.63;83.37
7768;BME280;3928;42.626;23.382;2023-05-23T01:05:18;94039.09;;;15.62;83.36
7768;BME280;3928;42.626;23.382;2023-05-23T01:07:47;94040.91;;;15.60;83.41
7768;BME280;3928;42.626;23.382;2023-05-23T01:10:15;94043.44;;;15.61;84.04
7768;BME280;3928;42.626;23.382;2023-05-23T01:12:52;94048.31;;;15.69;83.29
7768;BME280;3928;42.626;23.382;2023-05-23T01:15:25;94042.53;;;15.62;83.49
7768;BME280;3928;42.626;23.382;2023-05-23T01:17:58;94045.09;;;15.62;83.42
7768;BME280;3928;42.626;23.382;2023-05-23T01:20:33;94042.81;;;15.33;84.13
7768;BME280;3928;42.626;23.382;2023-05-23T01:23:15;94043.44;;;15.39;84.64
7768;BME280;3928;42.626;23.382;2023-05-23T01:25:59;94042.69;;;15.36;85.36
7768;BME280;3928;42.626;23.382;2023-05-23T01:28:32;94041.91;;;15.34;86.19
7768;BME280;3928;42.626;23.382;2023-05-23T01:31:03;94034.88;;;15.37;86.66
7768;BME280;3928;42.626;23.382;2023-05-23T01:33:32;94045.75;;;15.45;85.88
7768;BME280;3928;42.626;23.382;2023-05-23T01:36:01;94043.59;;;15.57;87.26
7768;BME280;3928;42.626;23.382;2023-05-23T01:38:29;94044.88;;;15.68;86.59
7768;BME280;3928;42.626;23.382;2023-05-23T01:40:55;94043.53;;;15.80;85.44
7768;BME280;3928;42.626;23.382;2023-05-23T01:43:23;94042.97;;;15.94;85.09
7768;BME280;3928;42.626;23.382;2023-05-23T01:45:52;94036.56;;;16.02;84.09
7768;BME280;3928;42.626;23.382;2023-05-23T01:48:21;94031.94;;;16.11;83.33
7768;BME280;3928;42.626;23.382;2023-05-23T01:50:49;94036.13;;;16.13;82.32
7768;BME280;3928;42.626;23.382;2023-05-23T01:53:19;94029.97;;;16.16;82.79
7768;BME280;3928;42.626;23.382;2023-05-23T01:55:46;94027.81;;;16.05;82.55
7768;BME280;3928;42.626;23.382;2023-05-23T01:58:13;94031.50;;;16.20;82.06
7768;BME280;3928;42.626;23.382;2023-05-23T02:00:40;94039.81;;;16.28;82.37
7768;BME280;3928;42.626;23.382;2023-05-23T02:03:09;94030.28;;;16.28;81.93
7768;BME280;3928;42.626;23.382;2023-05-23T02:05:36;94033.09;;;16.24;80.83
7768;BME280;3928;42.626;23.382;2023-05-23T02:08:02;94036.69;;;16.20;81.50
7768;BME280;3928;42.626;23.382;2023-05-23T02:10:29;94040.13;;;16.20;80.98
7768;BME280;3928;42.626;23.382;2023-05-23T02:12:56;94026.69;;;16.12;81.19
7768;BME280;3928;42.626;23.382;2023-05-23T02:15:23;94035.19;;;15.94;81.74
7768;BME280;3928;42.626;23.382;2023-05-23T02:17:50;94034.72;;;15.84;82.56
7768;BME280;3928;42.626;23.382;2023-05-23T02:20:18;94034.53;;;15.68;83.02
7768;BME280;3928;42.626;23.382;2023-05-23T02:22:45;94036.56;;;15.60;84.32
7768;BME280;3928;42.626;23.382;2023-05-23T02:25:12;94030.19;;;15.47;83.64
7768;BME280;3928;42.626;23.382;2023-05-23T02:27:40;94036.63;;;15.37;83.84
7768;BME280;3928;42.626;23.382;2023-05-23T02:30:09;94040.53;;;15.25;83.64
7768;BME280;3928;42.626;23.382;2023-05-23T02:32:36;94039.31;;;15.12;84.27
7768;BME280;3928;42.626;23.382;2023-05-23T02:35:03;94037.63;;;15.11;84.96
7768;BME280;3928;42.626;23.382;2023-05-23T02:37:32;94034.97;;;15.12;85.28
7768;BME280;3928;42.626;23.382;2023-05-23T02:39:59;94028.81;;;15.16;85.30
7768;BME280;3928;42.626;23.382;2023-05-23T02:42:25;94025.97;;;15.23;85.50
7768;BME280;3928;42.626;23.382;2023-05-23T02:44:52;94020.59;;;15.29;85.38
7768;BME280;3928;42.626;23.382;2023-05-23T02:47:19;94018.84;;;15.29;85.99
7768;BME280;3928;42.626;23.382;2023-05-23T02:49:46;94012.75;;;15.30;85.13
7768;BME280;3928;42.626;23.382;2023-05-23T02:52:13;94021.94;;;15.37;84.47
7768;BME280;3928;42.626;23.382;2023-05-23T02:54:41;94020.31;;;15.35;83.92
7768;BME280;3928;42.626;23.382;2023-05-23T02:57:08;93990.88;;;15.17;83.51
7768;BME280;3928;42.626;23.382;2023-05-23T02:59:35;94014.22;;;15.15;83.37
7768;BME280;3928;42.626;23.382;2023-05-23T03:02:01;94014.78;;;15.00;83.37
7768;BME280;3928;42.626;23.382;2023-05-23T03:04:28;94013.84;;;14.79;83.93
7768;BME280;3928;42.626;23.382;2023-05-23T03:06:55;94010.72;;;14.48;85.26
7768;BME280;3928;42.626;23.382;2023-05-23T03:09:24;94007.88;;;14.30;86.76
7768;BME280;3928;42.626;23.382;2023-05-23T03:11:52;94004.69;;;14.24;87.02
7768;BME280;3928;42.626;23.382;2023-05-23T03:14:19;94009.56;;;14.07;88.24
7768;BME280;3928;42.626;23.382;2023-05-23T03:16:46;94020.25;;;13.97;88.68
7768;BME280;3928;42.626;23.382;2023-05-23T03:19:13;94019.06;;;14.06;88.84
7768;BME280;3928;42.626;23.382;2023-05-23T03:21:40;94012.31;;;13.77;90.60
7768;BME280;3928;42.626;23.382;2023-05-23T03:24:08;94016.47;;;13.81;91.09
7768;BME280;3928;42.626;23.382;2023-05-23T03:26:35;94016.22;;;13.64;91.23
7768;BME280;3928;42.626;23.382;2023-05-23T03:29:03;94027.41;;;13.63;90.99
7768;BME280;3928;42.626;23.382;2023-05-23T03:31:30;94023.84;;;13.67;91.19
7768;BME280;3928;42.626;23.382;2023-05-23T03:33:57;94022.94;;;13.68;91.69
7768;BME280;3928;42.626;23.382;2023-05-23T03:36:24;94031.28;;;13.76;90.72
7768;BME280;3928;42.626;23.382;2023-05-23T03:38:53;94033.78;;;13.78;90.85
7768;BME280;3928;42.626;23.382;2023-05-23T03:41:19;94038.13;;;13.77;90.83
7768;BME280;3928;42.626;23.382;2023-05-23T03:43:46;94039.69;;;13.81;90.79
7768;BME280;3928;42.626;23.382;2023-05-23T03:46:15;94052.03;;;13.71;91.36
7768;BME280;3928;42.626;23.382;2023-05-23T03:48:42;94048.78;;;13.66;92.03
7768;BME280;3928;42.626;23.382;2023-05-23T03:51:08;94047.44;;;13.55;92.30
7768;BME280;3928;42.626;23.382;2023-05-23T03:53:35;94044.47;;;13.40;92.60
7768;BME280;3928;42.626;23.382;2023-05-23T03:56:02;94045.34;;;13.39;93.04
7768;BME280;3928;42.626;23.382;2023-05-23T03:58:29;94037.81;;;13.33;93.86
7768;BME280;3928;42.626;23.382;2023-05-23T04:00:55;94042.66;;;13.42;93.42
7768;BME280;3928;42.626;23.382;2023-05-23T04:03:24;94035.88;;;13.40;94.19
7768;BME280;3928;42.626;23.382;2023-05-23T04:05:52;94041.28;;;13.59;93.85
7768;BME280;3928;42.626;23.382;2023-05-23T04:08:19;93975.66;;;13.42;93.43
7768;BME280;3928;42.626;23.382;2023-05-23T04:10:46;94049.41;;;13.99;92.88
7768;BME280;3928;42.626;23.382;2023-05-23T04:13:13;94048.56;;;14.24;92.71
7768;BME280;3928;42.626;23.382;2023-05-23T04:15:41;94053.16;;;14.39;91.16
7768;BME280;3928;42.626;23.382;2023-05-23T04:18:08;94039.59;;;14.59;90.87
7768;BME280;3928;42.626;23.382;2023-05-23T04:20:39;94053.69;;;14.74;89.59
7768;BME280;3928;42.626;23.382;2023-05-23T04:23:09;94045.66;;;14.81;88.74
7768;BME280;3928;42.626;23.382;2023-05-23T04:25:38;94044.81;;;14.81;87.91
7768;BME280;3928;42.626;23.382;2023-05-23T04:28:06;93861.69;;;13.58;88.80
7768;BME280;3928;42.626;23.382;2023-05-23T04:30:34;94045.47;;;14.62;89.31
7768;BME280;3928;42.626;23.382;2023-05-23T04:33:02;93936.19;;;13.90;89.39
7768;BME280;3928;42.626;23.382;2023-05-23T04:35:32;94039.13;;;14.48;89.34
7768;BME280;3928;42.626;23.382;2023-05-23T04:38:05;94033.19;;;14.46;90.04
7768;BME280;3928;42.626;23.382;2023-05-23T04:40:32;94047.41;;;14.57;90.50
7768;BME280;3928;42.626;23.382;2023-05-23T04:42:59;94044.50;;;14.65;90.58
7768;BME280;3928;42.626;23.382;2023-05-23T04:45:26;94052.44;;;14.60;90.78
7768;BME280;3928;42.626;23.382;2023-05-23T04:47:52;94054.56;;;14.73;91.33
7768;BME280;3928;42.626;23.382;2023-05-23T04:50:20;94053.03;;;14.90;91.76
7768;BME280;3928;42.626;23.382;2023-05-23T04:52:47;94055.78;;;15.09;91.48
7768;BME280;3928;42.626;23.382;2023-05-23T04:55:16;94055.19;;;15.25;90.06
7768;BME280;3928;42.626;23.382;2023-05-23T04:57:44;94060.56;;;15.42;89.59
7768;BME280;3928;42.626;23.382;2023-05-23T05:00:12;94062.53;;;15.57;88.67
7768;BME280;3928;42.626;23.382;2023-05-23T05:02:40;94040.16;;;15.56;88.25
7768;BME280;3928;42.626;23.382;2023-05-23T05:05:07;94067.59;;;15.82;88.52
7768;BME280;3928;42.626;23.382;2023-05-23T05:07:34;94073.03;;;15.96;88.11
7768;BME280;3928;42.626;23.382;2023-05-23T05:10:01;94074.19;;;16.11;87.40
7768;BME280;3928;42.626;23.382;2023-05-23T05:12:29;94074.50;;;16.24;86.59
7768;BME280;3928;42.626;23.382;2023-05-23T05:14:56;94081.75;;;16.36;86.17
7768;BME280;3928;42.626;23.382;2023-05-23T05:17:23;94077.66;;;16.51;85.89
7768;BME280;3928;42.626;23.382;2023-05-23T05:19:50;94080.56;;;16.63;86.06
7768;BME280;3928;42.626;23.382;2023-05-23T05:22:16;94083.22;;;16.82;85.55
7768;BME280;3928;42.626;23.382;2023-05-23T05:24:43;94080.09;;;16.94;84.64
7768;BME280;3928;42.626;23.382;2023-05-23T05:27:10;94074.63;;;17.01;83.78
7768;BME280;3928;42.626;23.382;2023-05-23T05:29:38;94079.81;;;17.19;83.42
7768;BME280;3928;42.626;23.382;2023-05-23T05:32:05;94077.78;;;17.26;82.87
7768;BME280;3928;42.626;23.382;2023-05-23T05:34:33;94082.19;;;17.24;84.32
7768;BME280;3928;42.626;23.382;2023-05-23T05:37:02;94063.31;;;17.39;83.00
7768;BME280;3928;42.626;23.382;2023-05-23T05:39:29;94077.03;;;17.79;88.80
7768;BME280;3928;42.626;23.382;2023-05-23T05:41:56;94063.31;;;17.94;83.00
7768;BME280;3928;42.626;23.382;2023-05-23T05:44:25;94086.31;;;18.19;81.08
7768;BME280;3928;42.626;23.382;2023-05-23T05:46:53;94093.03;;;18.40;80.88
7768;BME280;3928;42.626;23.382;2023-05-23T05:49:20;94079.19;;;18.57;79.82
7768;BME280;3928;42.626;23.382;2023-05-23T05:51:47;94086.53;;;18.84;78.88
7768;BME280;3928;42.626;23.382;2023-05-23T05:54:14;94083.56;;;19.07;76.35
7768;BME280;3928;42.626;23.382;2023-05-23T05:56:41;94086.56;;;19.15;76.48
7768;BME280;3928;42.626;23.382;2023-05-23T05:59:07;94088.88;;;19.21;75.19
7768;BME280;3928;42.626;23.382;2023-05-23T06:01:34;94069.31;;;18.81;77.38
7768;BME280;3928;42.626;23.382;2023-05-23T06:04:03;94072.94;;;18.61;78.71
7768;BME280;3928;42.626;23.382;2023-05-23T06:06:30;94074.41;;;18.50;79.51
7768;BME280;3928;42.626;23.382;2023-05-23T06:08:57;94077.91;;;18.49;79.54
7768;BME280;3928;42.626;23.382;2023-05-23T06:11:24;94073.69;;;18.63;80.44
7768;BME280;3928;42.626;23.382;2023-05-23T06:13:51;94069.59;;;18.92;80.01
7768;BME280;3928;42.626;23.382;2023-05-23T06:16:17;94083.31;;;19.27;79.12
7768;BME280;3928;42.626;23.382;2023-05-23T06:18:44;94070.81;;;19.50;77.48
7768;BME280;3928;42.626;23.382;2023-05-23T06:21:13;94078.97;;;19.75;75.12
7768;BME280;3928;42.626;23.382;2023-05-23T06:23:39;94077.63;;;19.84;75.73
7768;BME280;3928;42.626;23.382;2023-05-23T06:26:06;94071.88;;;20.09;75.21
7768;BME280;3928;42.626;23.382;2023-05-23T06:28:36;94076.75;;;20.15;73.23
7768;BME280;3928;42.626;23.382;2023-05-23T06:31:03;94083.50;;;20.33;73.63
7768;BME280;3928;42.626;23.382;2023-05-23T06:33:29;94087.28;;;20.43;73.40
7768;BME280;3928;42.626;23.382;2023-05-23T06:35:56;94079.03;;;20.51;72.95
7768;BME280;3928;42.626;23.382;2023-05-23T06:38:26;94089.47;;;20.65;72.10
7768;BME280;3928;42.626;23.382;2023-05-23T06:40:54;94088.66;;;20.79;71.92
7768;BME280;3928;42.626;23.382;2023-05-23T06:43:20;94088.47;;;20.96;72.08
7768;BME280;3928;42.626;23.382;2023-05-23T06:45:47;94084.94;;;21.12;71.88
7768;BME280;3928;42.626;23.382;2023-05-23T06:48:14;94076.66;;;21.19;69.80
7768;BME280;3928;42.626;23.382;2023-05-23T06:50:41;94074.69;;;21.09;70.38
7768;BME280;3928;42.626;23.382;2023-05-23T06:53:08;94078.03;;;21.11;69.17
7768;BME280;3928;42.626;23.382;2023-05-23T06:55:36;94082.97;;;21.15;70.32
7768;BME280;3928;42.626;23.382;2023-05-23T06:58:02;94077.28;;;21.23;70.31
7768;BME280;3928;42.626;23.382;2023-05-23T07:00:29;94080.28;;;21.31;69.54
7768;BME280;3928;42.626;23.382;2023-05-23T07:02:56;94075.72;;;21.35;67.99
7768;BME280;3928;42.626;23.382;2023-05-23T07:05:26;94069.84;;;21.45;68.48
7768;BME280;3928;42.626;23.382;2023-05-23T07:07:53;94070.00;;;21.56;68.50
7768;BME280;3928;42.626;23.382;2023-05-23T07:10:20;94072.38;;;21.74;68.91
7768;BME280;3928;42.626;23.382;2023-05-23T07:12:48;94064.00;;;21.69;68.29
7768;BME280;3928;42.626;23.382;2023-05-23T07:15:15;94059.22;;;21.75;68.69
7768;BME280;3928;42.626;23.382;2023-05-23T07:17:42;94063.22;;;21.81;68.49
7768;BME280;3928;42.626;23.382;2023-05-23T07:20:09;94053.94;;;21.89;68.29
7768;BME280;3928;42.626;23.382;2023-05-23T07:22:36;94053.06;;;22.03;67.16
7768;BME280;3928;42.626;23.382;2023-05-23T07:25:04;94056.69;;;22.15;67.25
7768;BME280;3928;42.626;23.382;2023-05-23T07:27:31;94056.16;;;22.23;68.74
7768;BME280;3928;42.626;23.382;2023-05-23T07:29:59;94050.00;;;22.24;67.13
7768;BME280;3928;42.626;23.382;2023-05-23T07:32:26;94048.16;;;22.38;66.96
7768;BME280;3928;42.626;23.382;2023-05-23T07:34:52;94048.91;;;22.53;66.49
7768;BME280;3928;42.626;23.382;2023-05-23T07:37:19;94046.81;;;22.71;65.57
7768;BME280;3928;42.626;23.382;2023-05-23T07:39:46;94049.28;;;22.87;65.03
7768;BME280;3928;42.626;23.382;2023-05-23T07:42:13;94047.97;;;23.05;65.50
7768;BME280;3928;42.626;23.382;2023-05-23T07:44:40;94044.00;;;23.12;64.04
7768;BME280;3928;42.626;23.382;2023-05-23T07:47:08;94043.47;;;23.20;63.61
7768;BME280;3928;42.626;23.382;2023-05-23T07:49:35;94043.63;;;23.42;62.89
7768;BME280;3928;42.626;23.382;2023-05-23T07:52:02;94039.03;;;23.58;61.23
7768;BME280;3928;42.626;23.382;2023-05-23T07:54:29;94040.03;;;23.56;63.05
7768;BME280;3928;42.626;23.382;2023-05-23T07:56:56;94037.56;;;23.78;61.73
7768;BME280;3928;42.626;23.382;2023-05-23T07:59:23;94035.72;;;23.91;61.37
7768;BME280;3928;42.626;23.382;2023-05-23T08:01:49;94043.16;;;23.98;62.28
7768;BME280;3928;42.626;23.382;2023-05-23T08:04:17;94043.09;;;24.10;61.48
7768;BME280;3928;42.626;23.382;2023-05-23T08:06:44;94035.75;;;24.27;60.00
7768;BME280;3928;42.626;23.382;2023-05-23T08:09:13;94031.41;;;24.38;59.28
7768;BME280;3928;42.626;23.382;2023-05-23T08:11:40;94035.53;;;24.54;58.77
7768;BME280;3928;42.626;23.382;2023-05-23T08:14:07;94031.25;;;24.64;58.47
7768;BME280;3928;42.626;23.382;2023-05-23T08:16:34;94028.19;;;24.81;56.18
7768;BME280;3928;42.626;23.382;2023-05-23T08:19:01;94028.06;;;24.94;56.82
7768;BME280;3928;42.626;23.382;2023-05-23T08:21:30;94029.75;;;24.95;58.67
7768;BME280;3928;42.626;23.382;2023-05-23T08:23:57;94038.03;;;25.01;57.80
7768;BME280;3928;42.626;23.382;2023-05-23T08:26:24;94037.78;;;25.16;57.03
7768;BME280;3928;42.626;23.382;2023-05-23T08:28:52;94034.06;;;25.18;55.22
7768;BME280;3928;42.626;23.382;2023-05-23T08:31:19;94032.78;;;25.24;54.74
7768;BME280;3928;42.626;23.382;2023-05-23T08:33:46;94026.56;;;25.36;55.15
7768;BME280;3928;42.626;23.382;2023-05-23T08:36:14;94031.19;;;25.44;55.81
7768;BME280;3928;42.626;23.382;2023-05-23T08:38:43;94025.34;;;25.51;53.55
7768;BME280;3928;42.626;23.382;2023-05-23T08:41:15;93990.38;;;25.28;53.73
7768;BME280;3928;42.626;23.382;2023-05-23T08:43:44;94024.50;;;25.62;53.12
7768;BME280;3928;42.626;23.382;2023-05-23T08:46:11;94021.34;;;25.68;50.26
7768;BME280;3928;42.626;23.382;2023-05-23T08:48:38;94026.28;;;25.84;51.99
7768;BME280;3928;42.626;23.382;2023-05-23T08:51:08;94025.47;;;26.04;51.45
7768;BME280;3928;42.626;23.382;2023-05-23T08:53:37;94024.97;;;26.10;50.24
7768;BME280;3928;42.626;23.382;2023-05-23T08:56:09;94008.09;;;26.13;49.71
7768;BME280;3928;42.626;23.382;2023-05-23T08:58:36;94017.97;;;26.32;51.43
7768;BME280;3928;42.626;23.382;2023-05-23T09:01:05;94020.16;;;26.47;49.91
7768;BME280;3928;42.626;23.382;2023-05-23T09:03:34;94008.56;;;26.50;49.62
7768;BME280;3928;42.626;23.382;2023-05-23T09:06:03;94016.31;;;26.72;48.69
7768;BME280;3928;42.626;23.382;2023-05-23T09:08:31;94014.97;;;26.78;47.07
7768;BME280;3928;42.626;23.382;2023-05-23T09:10:59;94004.38;;;26.89;46.18
7768;BME280;3928;42.626;23.382;2023-05-23T09:13:28;94012.69;;;27.15;43.57
7768;BME280;3928;42.626;23.382;2023-05-23T09:15:57;94016.63;;;27.30;41.37
7768;BME280;3928;42.626;23.382;2023-05-23T09:18:32;94013.94;;;27.51;40.83
7768;BME280;3928;42.626;23.382;2023-05-23T09:21:00;94012.66;;;27.76;41.66
7768;BME280;3928;42.626;23.382;2023-05-23T09:23:29;94013.53;;;27.96;39.81
7768;BME280;3928;42.626;23.382;2023-05-23T09:25:56;94004.44;;;27.79;38.21
7768;BME280;3928;42.626;23.382;2023-05-23T09:28:28;94011.53;;;27.79;35.63
7768;BME280;3928;42.626;23.382;2023-05-23T09:31:02;94018.97;;;27.64;33.68
7768;BME280;3928;42.626;23.382;2023-05-23T09:33:37;94005.84;;;27.03;34.45
7768;BME280;3928;42.626;23.382;2023-05-23T09:36:04;94011.03;;;27.14;37.03
7768;BME280;3928;42.626;23.382;2023-05-23T09:38:32;94009.69;;;27.29;35.09
7768;BME280;3928;42.626;23.382;2023-05-23T09:40:58;94010.19;;;27.54;36.06
7768;BME280;3928;42.626;23.382;2023-05-23T09:43:28;94005.16;;;27.72;34.34
7768;BME280;3928;42.626;23.382;2023-05-23T09:46:00;93988.44;;;27.61;35.05
7768;BME280;3928;42.626;23.382;2023-05-23T09:48:30;93989.56;;;26.98;32.63
7768;BME280;3928;42.626;23.382;2023-05-23T09:50:57;93993.44;;;26.94;34.84
7768;BME280;3928;42.626;23.382;2023-05-23T09:53:24;93993.41;;;26.63;34.85
7768;BME280;3928;42.626;23.382;2023-05-23T09:55:53;93996.28;;;27.02;36.58
7768;BME280;3928;42.626;23.382;2023-05-23T09:58:22;93990.59;;;27.37;33.57
7768;BME280;3928;42.626;23.382;2023-05-23T10:00:52;93986.13;;;27.28;33.88
7768;BME280;3928;42.626;23.382;2023-05-23T10:03:23;93984.00;;;27.22;32.97
7768;BME280;3928;42.626;23.382;2023-05-23T10:05:56;93987.00;;;27.38;33.79
7768;BME280;3928;42.626;23.382;2023-05-23T10:08:31;93989.19;;;27.73;33.48
7768;BME280;3928;42.626;23.382;2023-05-23T10:14:24;93988.31;;;26.71;33.33
7768;BME280;3928;42.626;23.382;2023-05-23T10:17:01;93975.22;;;27.02;33.82
7768;BME280;3928;42.626;23.382;2023-05-23T10:19:36;93966.66;;;27.19;35.19
7768;BME280;3928;42.626;23.382;2023-05-23T10:22:07;93989.06;;;27.75;35.14
7768;BME280;3928;42.626;23.382;2023-05-23T10:24:35;93984.06;;;28.01;32.17
7768;BME280;3928;42.626;23.382;2023-05-23T10:27:03;93972.84;;;28.18;33.44
7768;BME280;3928;42.626;23.382;2023-05-23T10:29:30;93980.38;;;28.32;30.76
7768;BME280;3928;42.626;23.382;2023-05-23T10:32:02;93972.69;;;28.10;31.82
7768;BME280;3928;42.626;23.382;2023-05-23T10:34:35;93954.50;;;27.78;32.47
7768;BME280;3928;42.626;23.382;2023-05-23T10:37:04;93964.38;;;27.95;33.76
7768;BME280;3928;42.626;23.382;2023-05-23T10:39:41;93969.94;;;28.31;34.53
7768;BME280;3928;42.626;23.382;2023-05-23T10:42:16;93968.78;;;28.62;32.45
7768;BME280;3928;42.626;23.382;2023-05-23T10:44:44;93968.31;;;28.96;32.25
7768;BME280;3928;42.626;23.382;2023-05-23T10:47:24;93958.59;;;29.24;28.86
7768;BME280;3928;42.626;23.382;2023-05-23T10:49:54;93949.41;;;29.28;28.74
7768;BME280;3928;42.626;23.382;2023-05-23T10:52:23;93940.81;;;29.53;29.36
7768;BME280;3928;42.626;23.382;2023-05-23T10:54:52;93961.84;;;29.73;28.30
7768;BME280;3928;42.626;23.382;2023-05-23T10:57:21;93955.88;;;29.88;28.00
7768;BME280;3928;42.626;23.382;2023-05-23T10:59:49;93961.16;;;29.88;27.46
7768;BME280;3928;42.626;23.382;2023-05-23T11:02:19;93948.25;;;30.03;27.46
7768;BME280;3928;42.626;23.382;2023-05-23T11:05:18;93948.03;;;30.14;27.67
7768;BME280;3928;42.626;23.382;2023-05-23T11:07:45;93946.81;;;30.44;28.38
7768;BME280;3928;42.626;23.382;2023-05-23T11:10:12;93939.69;;;30.45;27.80
7768;BME280;3928;42.626;23.382;2023-05-23T11:12:40;93935.69;;;30.41;27.79
7768;BME280;3928;42.626;23.382;2023-05-23T11:15:19;93928.41;;;30.43;27.73
7768;BME280;3928;42.626;23.382;2023-05-23T11:17:52;93943.22;;;30.71;28.21
7768;BME280;3928;42.626;23.382;2023-05-23T11:20:20;93942.16;;;30.64;26.58
7768;BME280;3928;42.626;23.382;2023-05-23T11:22:59;93938.28;;;30.76;25.91
7768;BME280;3928;42.626;23.382;2023-05-23T11:25:39;93939.50;;;30.90;25.58
7768;BME280;3928;42.626;23.382;2023-05-23T11:28:07;93925.41;;;30.81;25.93
7768;BME280;3928;42.626;23.382;2023-05-23T11:30:34;93929.78;;;30.99;26.25
7768;BME280;3928;42.626;23.382;2023-05-23T11:33:07;93926.88;;;31.10;26.68
7768;BME280;3928;42.626;23.382;2023-05-23T11:35:38;93933.16;;;31.09;25.21
7768;BME280;3928;42.626;23.382;2023-05-23T11:38:05;93864.34;;;30.39;25.66
7768;BME280;3928;42.626;23.382;2023-05-23T11:40:33;93925.47;;;30.98;26.38
7768;BME280;3928;42.626;23.382;2023-05-23T11:43:02;93918.91;;;31.10;25.08
7768;BME280;3928;42.626;23.382;2023-05-23T11:45:34;93924.53;;;31.07;25.33
7768;BME280;3928;42.626;23.382;2023-05-23T11:48:10;93912.00;;;31.17;25.46
7768;BME280;3928;42.626;23.382;2023-05-23T11:50:46;93904.94;;;31.26;25.25
7768;BME280;3928;42.626;23.382;2023-05-23T11:53:13;93893.19;;;31.36;25.61
7768;BME280;3928;42.626;23.382;2023-05-23T11:55:47;93919.13;;;31.59;25.29
7768;BME280;3928;42.626;23.382;2023-05-23T11:58:14;93911.44;;;31.39;25.64
7768;BME280;3928;42.626;23.382;2023-05-23T12:00:45;93894.22;;;31.43;24.99
7768;BME280;3928;42.626;23.382;2023-05-23T12:03:13;93905.56;;;31.62;25.09
7768;BME280;3928;42.626;23.382;2023-05-23T12:05:42;93909.88;;;31.63;24.82
7768;BME280;3928;42.626;23.382;2023-05-23T12:08:30;93906.16;;;31.48;24.89
7768;BME280;3928;42.626;23.382;2023-05-23T12:11:36;93903.72;;;31.62;25.37
7768;BME280;3928;42.626;23.382;2023-05-23T12:14:13;93896.25;;;31.50;25.82
7768;BME280;3928;42.626;23.382;2023-05-23T12:16:50;93903.34;;;31.41;26.24
7768;BME280;3928;42.626;23.382;2023-05-23T12:19:23;93881.25;;;31.32;25.68
7768;BME280;3928;42.626;23.382;2023-05-23T12:21:50;93892.72;;;31.49;24.43
7768;BME280;3928;42.626;23.382;2023-05-23T12:24:18;93886.94;;;31.03;24.77
7768;BME280;3928;42.626;23.382;2023-05-23T12:26:49;93890.03;;;30.99;25.28
7768;BME280;3928;42.626;23.382;2023-05-23T12:29:20;93882.69;;;30.59;25.76
7768;BME280;3928;42.626;23.382;2023-05-23T12:31:50;93880.13;;;30.67;25.93
7768;BME280;3928;42.626;23.382;2023-05-23T12:34:19;93883.59;;;30.67;25.52
7768;BME280;3928;42.626;23.382;2023-05-23T12:36:47;93873.19;;;30.74;25.92
7768;BME280;3928;42.626;23.382;2023-05-23T12:39:15;93873.50;;;30.45;26.36
7768;BME280;3928;42.626;23.382;2023-05-23T12:41:42;93866.38;;;30.45;26.35
7768;BME280;3928;42.626;23.382;2023-05-23T12:44:14;93869.06;;;30.53;26.64
7768;BME280;3928;42.626;23.382;2023-05-23T12:46:42;93867.72;;;30.67;26.63
7768;BME280;3928;42.626;23.382;2023-05-23T12:49:10;93859.66;;;30.85;25.56
7768;BME280;3928;42.626;23.382;2023-05-23T12:51:37;93835.38;;;30.98;25.23
7768;BME280;3928;42.626;23.382;2023-05-23T12:54:06;93852.75;;;31.26;25.47
7768;BME280;3928;42.626;23.382;2023-05-23T12:56:33;93854.59;;;31.42;25.24
7768;BME280;3928;42.626;23.382;2023-05-23T12:59:01;93851.41;;;31.30;25.10
7768;BME280;3928;42.626;23.382;2023-05-23T13:01:28;93842.63;;;31.30;24.86
7768;BME280;3928;42.626;23.382;2023-05-23T13:03:55;93850.41;;;31.23;23.95
7768;BME280;3928;42.626;23.382;2023-05-23T13:06:22;93842.38;;;31.07;23.56
7768;BME280;3928;42.626;23.382;2023-05-23T13:08:49;93850.94;;;31.01;24.47
7768;BME280;3928;42.626;23.382;2023-05-23T13:11:18;93848.84;;;31.12;24.23
7768;BME280;3928;42.626;23.382;2023-05-23T13:13:46;93847.75;;;30.89;22.93
7768;BME280;3928;42.626;23.382;2023-05-23T13:16:13;93841.56;;;30.46;23.35
7768;BME280;3928;42.626;23.382;2023-05-23T13:18:41;93831.06;;;30.37;23.76
7768;BME280;3928;42.626;23.382;2023-05-23T13:21:08;93845.94;;;30.55;24.17